createdAt,value
2023-03-13T00:00:54.987Z,95831.84
2023-03-13T00:03:22.954Z,95820.06
2023-03-13T00:05:50.511Z,95821.31
2023-03-13T00:08:18.041Z,95819.28
2023-03-13T00:10:45.507Z,95816.59
2023-03-13T00:13:14.630Z,95809.66
2023-03-13T00:15:42.085Z,95805.06
2023-03-13T00:18:09.555Z,95802.38
2023-03-13T00:20:37.011Z,95798.31
2023-03-13T00:23:04.512Z,95805.69
2023-03-13T00:25:32.002Z,95796.31
2023-03-13T00:27:59.524Z,95788.88
2023-03-13T00:30:28.430Z,95789.19
2023-03-13T00:32:56.060Z,95790.88
2023-03-13T00:35:23.576Z,95781.97
2023-03-13T00:37:51.070Z,95776.97
2023-03-13T00:40:20.209Z,95771.69
2023-03-13T00:42:47.678Z,95774.28
2023-03-13T00:45:15.261Z,95778.25
2023-03-13T00:47:44.054Z,95767.41
2023-03-13T00:50:12.455Z,95763.44
2023-03-13T00:52:39.903Z,95760.81
2023-03-13T00:55:08.653Z,95760.94
2023-03-13T00:57:37.463Z,95752.50
2023-03-13T01:00:07.240Z,95749.22
2023-03-13T01:02:34.884Z,95749.03
2023-03-13T01:05:04.084Z,95748.66
2023-03-13T01:07:31.554Z,95748.63
2023-03-13T01:09:59.013Z,95732.97
2023-03-13T01:12:26.467Z,95735.22
2023-03-13T01:14:54.178Z,95740.25
2023-03-13T01:17:22.061Z,95739.75
2023-03-13T01:19:49.903Z,95734.28
2023-03-13T01:22:18.750Z,95732.63
2023-03-13T01:24:50.023Z,95734.69
2023-03-13T01:27:17.507Z,95741.69
2023-03-13T01:29:45.003Z,95741.81
2023-03-13T01:32:12.483Z,95745.13
2023-03-13T01:34:40.552Z,95746.84
2023-03-13T01:37:08.045Z,95747.03
2023-03-13T01:39:36.848Z,95743.72
2023-03-13T01:42:04.697Z,95738.94
2023-03-13T01:44:50.684Z,95744.22
2023-03-13T01:47:18.182Z,95735.63
2023-03-13T01:49:46.303Z,95729.06
2023-03-13T01:52:17.140Z,95721.44
2023-03-13T01:54:51.028Z,95730.81
2023-03-13T01:57:23.598Z,95718.34
2023-03-13T01:59:55.063Z,95726.63
2023-03-13T02:02:23.722Z,95730.78
2023-03-13T02:04:56.670Z,95735.34
2023-03-13T02:07:28.260Z,95727.59
2023-03-13T02:09:57.856Z,95726.75
2023-03-13T02:12:30.621Z,95717.69
2023-03-13T02:15:00.122Z,95722.03
2023-03-13T02:17:28.427Z,95711.25
2023-03-13T02:19:56.070Z,95714.63
2023-03-13T02:22:32.776Z,95701.19
2023-03-13T02:25:07.727Z,95714.28
2023-03-13T02:27:36.606Z,95701.88
2023-03-13T02:30:05.462Z,95710.97
2023-03-13T02:32:33.290Z,95716.34
2023-03-13T02:35:05.796Z,95712.81
2023-03-13T02:37:34.520Z,95714.81
2023-03-13T02:40:06.193Z,95719.16
2023-03-13T02:42:33.707Z,95716.47
2023-03-13T02:45:02.509Z,95708.53
2023-03-13T02:47:29.982Z,95702.81
2023-03-13T02:49:57.464Z,95707.72
2023-03-13T02:52:28.989Z,95697.38
2023-03-13T02:55:00.007Z,95696.91
2023-03-13T02:57:27.602Z,95699.25
2023-03-13T02:59:55.070Z,95703.81
2023-03-13T03:02:23.964Z,95705.38
2023-03-13T03:04:51.498Z,95701.22
2023-03-13T03:07:19.065Z,95706.66
2023-03-13T03:09:46.533Z,95699.75
2023-03-13T03:12:14.020Z,95700.41
2023-03-13T03:14:41.622Z,95692.47
2023-03-13T03:17:09.139Z,95682.72
2023-03-13T03:19:37.908Z,95681.25
2023-03-13T03:22:06.037Z,95680.41
2023-03-13T03:24:33.542Z,95674.63
2023-03-13T03:27:01.004Z,95677.09
2023-03-13T03:29:28.700Z,95675.78
2023-03-13T03:31:56.371Z,95670.16
2023-03-13T03:34:24.016Z,95674.47
2023-03-13T03:36:52.980Z,95679.44
2023-03-13T03:39:20.470Z,95669.38
2023-03-13T03:41:47.961Z,95662.09
2023-03-13T03:44:15.502Z,95661.28
2023-03-13T03:46:42.982Z,95656.97
2023-03-13T03:49:10.464Z,95655.56
2023-03-13T03:51:37.924Z,95651.19
2023-03-13T03:54:06.749Z,95649.31
2023-03-13T03:56:34.268Z,95641.38
2023-03-13T03:59:01.739Z,95638.41
2023-03-13T04:01:29.318Z,95635.47
2023-03-13T04:03:56.794Z,95641.25
2023-03-13T04:06:24.255Z,95633.44
2023-03-13T04:08:51.738Z,95630.97
2023-03-13T04:11:20.532Z,95639.09
2023-03-13T04:13:48.055Z,95633.50
2023-03-13T04:16:15.644Z,95626.06
2023-03-13T04:18:43.152Z,95625.06
2023-03-13T04:21:10.609Z,95617.97
2023-03-13T04:23:38.099Z,95618.78
2023-03-13T04:26:05.850Z,95615.63
2023-03-13T04:28:34.659Z,95611.00
2023-03-13T04:31:02.217Z,95598.13
2023-03-13T04:33:30.417Z,95595.31
2023-03-13T04:35:58.029Z,95592.66
2023-03-13T04:38:25.560Z,95597.81
2023-03-13T04:40:53.051Z,95594.84
2023-03-13T04:43:20.534Z,95593.50
2023-03-13T04:45:50.049Z,95586.91
2023-03-13T04:48:17.567Z,95594.19
2023-03-13T04:50:45.049Z,95589.53
2023-03-13T04:53:12.521Z,95588.88
2023-03-13T04:55:40.099Z,95578.31
2023-03-13T04:58:07.619Z,95589.19
2023-03-13T05:00:35.103Z,95584.25
2023-03-13T05:03:03.925Z,95585.53
2023-03-13T05:05:31.413Z,95571.69
2023-03-13T05:07:58.918Z,95576.97
2023-03-13T05:10:26.490Z,95576.09
2023-03-13T05:12:54.029Z,95582.00
2023-03-13T05:15:21.512Z,95580.13
2023-03-13T05:17:48.990Z,95569.84
2023-03-13T05:20:18.031Z,95563.94
2023-03-13T05:22:45.552Z,95555.94
2023-03-13T05:25:13.141Z,95540.13
2023-03-13T05:27:40.688Z,95556.13
2023-03-13T05:30:09.695Z,95561.88
2023-03-13T05:32:37.234Z,95541.16
2023-03-13T05:35:05.176Z,95538.16
2023-03-13T05:37:34.081Z,95544.22
2023-03-13T05:40:01.581Z,95541.06
2023-03-13T05:42:29.071Z,95551.31
2023-03-13T05:44:56.556Z,95554.56
2023-03-13T05:47:24.054Z,95553.63
2023-03-13T05:49:51.527Z,95549.41
2023-03-13T05:52:19.017Z,95539.47
2023-03-13T05:54:47.829Z,95545.56
2023-03-13T05:57:15.320Z,95544.81
2023-03-13T05:59:42.933Z,95545.13
2023-03-13T06:02:10.396Z,95537.94
2023-03-13T06:04:37.946Z,95532.66
2023-03-13T06:07:05.840Z,95540.28
2023-03-13T06:09:33.398Z,95539.78
2023-03-13T06:12:02.188Z,95544.22
2023-03-13T06:14:29.659Z,95524.09
2023-03-13T06:16:57.119Z,95530.69
2023-03-13T06:19:25.062Z,95527.41
2023-03-13T06:21:53.266Z,95503.63
2023-03-13T06:24:20.755Z,95522.63
2023-03-13T06:26:49.991Z,95527.00
2023-03-13T06:29:18.963Z,95533.13
2023-03-13T06:31:46.607Z,95529.53
2023-03-13T06:34:14.617Z,95527.59
2023-03-13T06:36:42.084Z,95509.81
2023-03-13T06:39:10.219Z,95500.47
2023-03-13T06:41:37.694Z,95498.97
2023-03-13T06:44:05.203Z,95492.38
2023-03-13T06:46:34.407Z,95500.28
2023-03-13T06:49:04.568Z,95501.44
2023-03-13T06:51:32.480Z,95498.00
2023-03-13T06:54:00.145Z,95505.28
2023-03-13T06:56:27.569Z,95505.28
2023-03-13T06:58:55.030Z,95511.44
2023-03-13T07:01:22.610Z,95509.59
2023-03-13T07:03:51.496Z,95505.81
2023-03-13T07:06:19.490Z,95509.06
2023-03-13T07:08:47.174Z,95515.16
2023-03-13T07:11:15.429Z,95515.47
2023-03-13T07:13:43.076Z,95510.47
2023-03-13T07:16:12.980Z,95504.56
2023-03-13T07:18:44.369Z,95500.81
2023-03-13T07:21:13.738Z,95496.81
2023-03-13T07:23:41.626Z,95496.97
2023-03-13T07:26:12.299Z,95494.34
2023-03-13T07:28:39.944Z,95504.88
2023-03-13T07:31:09.455Z,95500.09
2023-03-13T07:33:36.983Z,95492.00
2023-03-13T07:36:05.392Z,95496.03
2023-03-13T07:38:34.332Z,95487.06
2023-03-13T07:41:01.955Z,95481.59
2023-03-13T07:43:31.359Z,95492.28
2023-03-13T07:46:00.221Z,95492.94
2023-03-13T07:48:31.029Z,95489.03
2023-03-13T07:50:59.524Z,95482.75
2023-03-13T07:53:28.053Z,95482.00
2023-03-13T07:55:58.965Z,95482.16
2023-03-13T07:58:28.286Z,95491.41
2023-03-13T08:00:55.806Z,95485.66
2023-03-13T08:03:24.271Z,95484.84
2023-03-13T08:05:59.883Z,95487.50
2023-03-13T08:08:27.658Z,95487.44
2023-03-13T08:10:55.148Z,95488.13
2023-03-13T08:13:23.922Z,95491.41
2023-03-13T08:15:51.370Z,95493.88
2023-03-13T08:18:18.876Z,95494.41
2023-03-13T08:20:46.326Z,95489.44
2023-03-13T08:23:13.783Z,95482.50
2023-03-13T08:25:41.220Z,95490.25
2023-03-13T08:28:08.823Z,95486.50
2023-03-13T08:30:37.733Z,95479.56
2023-03-13T08:33:07.532Z,95475.88
2023-03-13T08:35:35.289Z,95475.38
2023-03-13T08:38:02.909Z,95476.81
2023-03-13T08:40:30.414Z,95455.50
2023-03-13T08:42:57.859Z,95448.47
2023-03-13T08:45:25.330Z,95449.38
2023-03-13T08:47:54.654Z,95440.81
2023-03-13T08:50:22.136Z,95437.50
2023-03-13T08:52:49.577Z,95428.06
2023-03-13T08:55:17.209Z,95418.91
2023-03-13T08:57:44.661Z,95419.25
2023-03-13T09:00:14.991Z,95425.97
2023-03-13T09:02:42.520Z,95418.22
2023-03-13T09:05:11.406Z,95416.97
2023-03-13T09:07:38.870Z,95415.34
2023-03-13T09:10:07.503Z,95407.91
2023-03-13T09:12:34.961Z,95405.84
2023-03-13T09:15:02.497Z,95407.81
2023-03-13T09:17:29.983Z,95395.03
2023-03-13T09:20:00.486Z,95394.75
2023-03-13T09:22:29.809Z,95403.94
2023-03-13T09:24:57.240Z,95387.88
2023-03-13T09:27:24.709Z,95399.22
2023-03-13T09:29:52.344Z,95390.28
2023-03-13T09:32:20.462Z,95389.63
2023-03-13T09:34:48.354Z,95392.44
2023-03-13T09:37:16.057Z,95380.53
2023-03-13T09:39:44.889Z,95369.34
2023-03-13T09:42:17.624Z,95375.25
2023-03-13T09:44:49.641Z,95381.91
2023-03-13T09:47:25.031Z,95381.53
2023-03-13T09:49:56.754Z,95374.13
2023-03-13T09:52:25.982Z,95377.63
2023-03-13T09:54:58.366Z,95376.34
2023-03-13T09:57:32.346Z,95361.72
2023-03-13T10:00:04.599Z,95366.44
2023-03-13T10:02:34.050Z,95372.06
2023-03-13T10:05:11.225Z,95369.59
2023-03-13T10:07:38.745Z,95368.69
2023-03-13T10:10:14.368Z,95365.06
2023-03-13T10:12:45.596Z,95368.34
2023-03-13T10:15:37.961Z,95376.16
2023-03-13T10:18:16.625Z,95371.09
2023-03-13T10:20:46.604Z,95369.09
2023-03-13T10:23:17.728Z,95368.31
2023-03-13T10:25:46.578Z,95360.97
2023-03-13T10:28:15.518Z,95362.13
2023-03-13T10:30:48.791Z,95346.75
2023-03-13T10:33:21.777Z,95364.84
2023-03-13T10:36:01.206Z,95350.13
2023-03-13T10:38:28.702Z,95350.19
2023-03-13T10:41:02.055Z,95351.59
2023-03-13T10:43:30.440Z,95345.84
2023-03-13T10:45:57.896Z,95344.50
2023-03-13T10:48:27.768Z,95340.66
2023-03-13T10:50:57.535Z,95344.34
2023-03-13T10:53:33.385Z,95352.03
2023-03-13T10:56:11.515Z,95346.38
2023-03-13T10:58:43.931Z,95339.09
2023-03-13T11:01:18.375Z,95355.91
2023-03-13T11:03:47.426Z,95340.13
2023-03-13T11:06:27.494Z,95345.22
2023-03-13T11:09:04.710Z,95335.81
2023-03-13T11:11:45.353Z,95339.19
2023-03-13T11:14:18.264Z,95339.75
2023-03-13T11:16:50.740Z,95330.31
2023-03-13T11:19:30.739Z,95343.47
2023-03-13T11:22:16.037Z,95335.25
2023-03-13T11:24:50.282Z,95345.78
2023-03-13T11:27:28.198Z,95335.91
2023-03-13T11:30:08.990Z,95333.59
2023-03-13T11:32:43.122Z,95340.97
2023-03-13T11:35:22.147Z,95325.66
2023-03-13T11:37:53.233Z,95323.50
2023-03-13T11:40:22.995Z,95317.31
2023-03-13T11:43:22.020Z,95314.16
2023-03-13T11:46:09.458Z,95318.75
2023-03-13T11:48:49.925Z,95325.44
2023-03-13T11:51:25.681Z,95322.97
2023-03-13T11:54:17.148Z,95318.75
2023-03-13T11:56:47.998Z,95328.06
2023-03-13T11:59:31.424Z,95329.19
2023-03-13T12:02:05.579Z,95326.28
2023-03-13T12:04:37.789Z,95317.38
2023-03-13T12:07:11.286Z,95316.81
2023-03-13T12:09:45.933Z,95310.09
2023-03-13T12:12:20.312Z,95305.28
2023-03-13T12:14:54.735Z,95296.63
2023-03-13T12:17:32.819Z,95289.66
2023-03-13T12:20:07.790Z,95281.38
2023-03-13T12:22:40.516Z,95279.50
2023-03-13T12:25:16.108Z,95275.22
2023-03-13T12:27:48.362Z,95257.25
2023-03-13T12:30:28.338Z,95254.22
2023-03-13T12:33:02.899Z,95254.31
2023-03-13T12:35:33.264Z,95245.44
2023-03-13T12:38:10.123Z,95251.88
2023-03-13T12:40:44.828Z,95262.16
2023-03-13T12:43:18.481Z,95246.69
2023-03-13T12:46:11.974Z,95258.19
2023-03-13T12:49:01.048Z,95245.59
2023-03-13T12:51:41.736Z,95246.25
2023-03-13T12:54:40.593Z,95240.31
2023-03-13T12:57:23.142Z,95242.66
2023-03-13T12:59:55.585Z,95239.84
2023-03-13T13:02:26.474Z,95231.75
2023-03-13T13:04:56.947Z,95231.75
2023-03-13T13:07:27.335Z,95219.53
2023-03-13T13:10:18.605Z,95220.00
2023-03-13T13:12:47.036Z,95215.59
2023-03-13T13:15:23.451Z,95202.63
2023-03-13T13:17:58.267Z,95196.53
2023-03-13T13:20:35.009Z,95180.56
2023-03-13T13:23:34.662Z,95180.88
2023-03-13T13:26:41.967Z,95161.75
2023-03-13T13:29:55.863Z,95158.16
2023-03-13T13:32:45.903Z,95156.72
2023-03-13T13:35:26.904Z,95147.06
2023-03-13T13:38:15.433Z,95129.19
2023-03-13T13:41:00.001Z,95123.63
2023-03-13T13:43:31.970Z,95122.50
2023-03-13T13:46:03.567Z,95121.69
2023-03-13T13:48:34.139Z,95112.66
2023-03-13T13:51:33.408Z,95100.88
2023-03-13T13:54:03.017Z,95095.00
2023-03-13T13:56:36.160Z,95090.59
2023-03-13T13:59:12.913Z,95094.38
2023-03-13T14:01:42.591Z,95096.31
2023-03-13T14:04:16.519Z,95087.78
2023-03-13T14:06:49.625Z,95078.88
2023-03-13T14:09:32.245Z,95076.72
2023-03-13T14:11:59.807Z,95074.78
2023-03-13T14:14:27.441Z,95076.41
2023-03-13T14:16:57.072Z,95075.97
2023-03-13T14:19:30.437Z,95065.06
2023-03-13T14:22:05.215Z,95068.78
2023-03-13T14:24:32.830Z,95050.53
2023-03-13T14:27:00.927Z,95046.75
2023-03-13T14:29:28.775Z,95053.78
2023-03-13T14:31:58.643Z,95047.13
2023-03-13T14:34:28.377Z,95032.09
2023-03-13T14:37:16.781Z,95036.56
2023-03-13T14:39:48.656Z,95016.56
2023-03-13T14:42:17.878Z,95014.13
2023-03-13T14:44:48.644Z,94997.63
2023-03-13T14:47:24.048Z,95000.78
2023-03-13T14:49:58.719Z,94994.38
2023-03-13T14:52:28.114Z,94990.25
2023-03-13T14:54:58.506Z,94983.19
2023-03-13T14:57:27.782Z,94975.03
2023-03-13T14:59:56.078Z,94969.56
2023-03-13T15:02:25.444Z,94960.59
2023-03-13T15:04:59.581Z,94967.91
2023-03-13T15:07:28.747Z,94954.53
2023-03-13T15:09:57.642Z,94955.66
2023-03-13T15:12:25.362Z,94955.69
2023-03-13T15:14:53.884Z,94950.94
2023-03-13T15:17:23.550Z,94944.81
2023-03-13T15:19:53.863Z,94946.63
2023-03-13T15:22:27.014Z,94935.31
2023-03-13T15:25:05.712Z,94934.53
2023-03-13T15:27:35.956Z,94922.41
2023-03-13T15:30:03.652Z,94912.53
2023-03-13T15:32:33.844Z,94906.28
2023-03-13T15:35:03.263Z,94903.69
2023-03-13T15:37:31.722Z,94891.34
2023-03-13T15:39:59.289Z,94879.56
2023-03-13T15:42:26.949Z,94878.94
2023-03-13T15:44:55.732Z,94874.94
2023-03-13T15:47:23.388Z,94874.63
2023-03-13T15:49:50.962Z,94874.53
2023-03-13T15:52:22.697Z,94866.97
2023-03-13T15:54:51.908Z,94868.44
2023-03-13T15:57:23.263Z,94868.22
2023-03-13T15:59:51.100Z,94864.69
2023-03-13T16:02:22.405Z,94851.41
2023-03-13T16:04:50.300Z,94850.16
2023-03-13T16:07:20.746Z,94847.63
2023-03-13T16:09:48.902Z,94850.09
2023-03-13T16:12:16.364Z,94835.69
2023-03-13T16:14:43.844Z,94820.34
2023-03-13T16:17:15.191Z,94814.44
2023-03-13T16:19:44.149Z,94801.34
2023-03-13T16:22:12.223Z,94803.84
2023-03-13T16:24:40.043Z,94806.50
2023-03-13T16:27:14.105Z,94803.22
2023-03-13T16:29:41.565Z,94791.72
2023-03-13T16:32:12.722Z,94784.50
2023-03-13T16:34:40.228Z,94790.88
2023-03-13T16:37:14.228Z,94792.00
2023-03-13T16:39:42.123Z,94787.31
2023-03-13T16:42:09.665Z,94776.78
2023-03-13T16:44:37.174Z,94777.16
2023-03-13T16:47:16.409Z,94765.75
2023-03-13T16:49:45.757Z,94772.44
2023-03-13T16:52:16.508Z,94769.59
2023-03-13T16:54:44.476Z,94773.97
2023-03-13T16:57:13.097Z,94768.28
2023-03-13T16:59:40.651Z,94774.59
2023-03-13T17:02:15.493Z,94757.13
2023-03-13T17:04:44.907Z,94753.06
2023-03-13T17:07:18.961Z,94761.81
2023-03-13T17:09:47.031Z,94744.13
2023-03-13T17:12:14.571Z,94752.09
2023-03-13T17:14:42.137Z,94745.44
2023-03-13T17:17:13.535Z,94740.59
2023-03-13T17:19:41.098Z,94745.16
2023-03-13T17:22:10.519Z,94735.09
2023-03-13T17:24:39.355Z,94734.19
2023-03-13T17:27:12.180Z,94742.47
2023-03-13T17:29:39.735Z,94734.69
2023-03-13T17:32:07.447Z,94731.16
2023-03-13T17:34:34.948Z,94718.34
2023-03-13T17:37:04.775Z,94715.97
2023-03-13T17:39:32.396Z,94709.44
2023-03-13T17:42:04.084Z,94700.53
2023-03-13T17:44:31.625Z,94696.84
2023-03-13T17:46:59.193Z,94707.88
2023-03-13T17:49:26.708Z,94688.47
2023-03-13T17:51:54.162Z,94693.28
2023-03-13T17:54:21.836Z,94692.78
2023-03-13T17:56:49.317Z,94676.38
2023-03-13T17:59:19.791Z,94673.09
2023-03-13T18:01:47.400Z,94666.63
2023-03-13T18:04:15.061Z,94674.31
2023-03-13T18:06:44.440Z,94665.06
2023-03-13T18:09:16.240Z,94659.03
2023-03-13T18:11:44.056Z,94665.22
2023-03-13T18:14:11.772Z,94671.31
2023-03-13T18:16:44.227Z,94668.13
2023-03-13T18:19:15.922Z,94661.22
2023-03-13T18:21:44.440Z,94656.84
2023-03-13T18:24:13.087Z,94669.66
2023-03-13T18:26:43.183Z,94665.00
2023-03-13T18:29:15.944Z,94646.44
2023-03-13T18:31:45.265Z,94643.00
2023-03-13T18:34:13.276Z,94644.44
2023-03-13T18:36:40.745Z,94641.50
2023-03-13T18:39:08.216Z,94628.75
2023-03-13T18:41:36.952Z,94621.75
2023-03-13T18:44:04.549Z,94624.94
2023-03-13T18:46:34.545Z,94617.00
2023-03-13T18:49:03.698Z,94602.53
2023-03-13T18:51:31.162Z,94595.06
2023-03-13T18:53:59.181Z,94591.22
2023-03-13T18:56:30.855Z,94572.81
2023-03-13T18:58:59.318Z,94571.50
2023-03-13T19:01:30.074Z,94573.59
2023-03-13T19:04:00.026Z,94569.41
2023-03-13T19:06:30.695Z,94563.50
2023-03-13T19:09:00.185Z,94551.41
2023-03-13T19:11:30.423Z,94553.44
2023-03-13T19:13:58.492Z,94543.34
2023-03-13T19:16:30.155Z,94548.94
2023-03-13T19:18:58.225Z,94547.28
2023-03-13T19:21:27.439Z,94543.63
2023-03-13T19:23:56.997Z,94539.59
2023-03-13T19:26:28.493Z,94533.16
2023-03-13T19:28:56.251Z,94522.78
2023-03-13T19:31:24.154Z,94520.44
2023-03-13T19:33:53.411Z,94521.22
2023-03-13T19:36:22.913Z,94513.94
2023-03-13T19:38:51.626Z,94514.56
2023-03-13T19:41:21.572Z,94509.75
2023-03-13T19:43:50.047Z,94507.56
2023-03-13T19:46:23.824Z,94506.47
2023-03-13T19:48:53.709Z,94505.59
2023-03-13T19:51:21.333Z,94505.84
2023-03-13T19:53:48.990Z,94509.97
2023-03-13T19:56:20.844Z,94515.28
2023-03-13T19:58:50.034Z,94521.50
2023-03-13T20:01:18.108Z,94520.63
2023-03-13T20:03:46.737Z,94510.91
2023-03-13T20:06:17.506Z,94505.63
2023-03-13T20:08:45.378Z,94501.75
2023-03-13T20:11:13.611Z,94499.50
2023-03-13T20:13:43.308Z,94487.22
2023-03-13T20:16:11.846Z,94476.19
2023-03-13T20:18:39.644Z,94471.34
2023-03-13T20:21:07.737Z,94472.56
2023-03-13T20:23:35.240Z,94468.09
2023-03-13T20:26:04.800Z,94454.25
2023-03-13T20:28:32.351Z,94464.03
2023-03-13T20:31:01.236Z,94465.22
2023-03-13T20:33:28.741Z,94470.28
2023-03-13T20:35:58.430Z,94467.81
2023-03-13T20:38:25.980Z,94470.03
2023-03-13T20:40:54.126Z,94469.56
2023-03-13T20:43:21.953Z,94465.31
2023-03-13T20:45:49.660Z,94471.72
2023-03-13T20:48:19.186Z,94470.53
2023-03-13T20:50:47.176Z,94485.97
2023-03-13T20:53:15.013Z,94495.72
2023-03-13T20:55:42.730Z,94506.47
2023-03-13T20:58:10.217Z,94520.72
2023-03-13T21:00:37.695Z,94538.06
2023-03-13T21:03:05.641Z,94538.59
2023-03-13T21:05:34.507Z,94539.59
2023-03-13T21:08:01.953Z,94658.28
2023-03-13T21:10:29.463Z,94652.53
2023-03-13T21:12:56.904Z,94648.06
2023-03-13T21:15:24.384Z,94644.75
2023-03-13T21:17:52.099Z,94635.38
2023-03-13T21:20:19.645Z,94605.16
2023-03-13T21:22:48.488Z,94588.34
2023-03-13T21:25:16.632Z,94591.16
2023-03-13T21:27:44.688Z,94598.00
2023-03-13T21:30:15.066Z,94597.69
2023-03-13T21:32:42.778Z,94583.03
2023-03-13T21:35:11.182Z,94576.84
2023-03-13T21:37:38.923Z,94561.53
2023-03-13T21:40:09.651Z,94567.47
2023-03-13T21:42:37.583Z,94582.34
2023-03-13T21:45:05.939Z,94575.31
2023-03-13T21:47:36.815Z,94559.25
2023-03-13T21:50:05.899Z,94567.69
2023-03-13T21:52:38.154Z,94593.00
2023-03-13T21:55:12.406Z,94623.00
2023-03-13T21:57:40.961Z,94630.56
2023-03-13T22:00:10.066Z,94675.53
2023-03-13T22:02:38.454Z,94734.94
2023-03-13T22:05:07.612Z,94747.09
2023-03-13T22:07:35.395Z,94766.91
2023-03-13T22:10:02.882Z,94781.63
2023-03-13T22:12:31.708Z,94806.69
2023-03-13T22:14:59.180Z,94808.06
2023-03-13T22:17:26.719Z,94826.34
2023-03-13T22:19:54.885Z,94847.34
2023-03-13T22:22:23.090Z,94827.91
2023-03-13T22:24:50.618Z,94829.13
2023-03-13T22:27:19.404Z,94807.13
2023-03-13T22:29:48.689Z,94801.44
2023-03-13T22:32:16.734Z,94797.56
2023-03-13T22:34:47.101Z,94784.72
2023-03-13T22:37:15.168Z,94784.72
2023-03-13T22:39:42.704Z,94778.63
2023-03-13T22:42:10.175Z,94770.66
2023-03-13T22:44:37.667Z,94774.06
2023-03-13T22:47:06.532Z,94770.00
2023-03-13T22:49:34.002Z,94758.94
2023-03-13T22:52:02.570Z,94755.25
2023-03-13T22:54:30.313Z,94782.16
2023-03-13T22:56:57.861Z,94783.78
2023-03-13T22:59:25.379Z,94764.56
2023-03-13T23:01:52.871Z,94761.09
2023-03-13T23:04:21.718Z,94767.28
2023-03-13T23:06:49.227Z,94751.06
2023-03-13T23:09:16.752Z,94728.41
2023-03-13T23:11:44.274Z,94732.22
2023-03-13T23:14:11.813Z,94734.44
2023-03-13T23:16:39.360Z,94717.31
2023-03-13T23:19:07.706Z,94697.34
2023-03-13T23:21:36.569Z,94695.72
2023-03-13T23:24:04.133Z,94682.84
2023-03-13T23:26:31.657Z,94673.03
2023-03-13T23:28:59.169Z,94648.97
2023-03-13T23:31:26.720Z,94632.06
2023-03-13T23:33:54.211Z,94624.72
2023-03-13T23:36:21.724Z,94620.34
2023-03-13T23:38:52.091Z,94625.66
2023-03-13T23:41:20.904Z,94639.97
2023-03-13T23:43:48.391Z,94643.41
2023-03-13T23:46:18.062Z,94655.56
2023-03-13T23:48:45.573Z,94660.06
2023-03-13T23:51:13.374Z,94649.69
2023-03-13T23:53:42.390Z,94641.34
2023-03-13T23:56:11.794Z,94631.72
2023-03-13T23:58:39.387Z,94622.75
